KRKS/RKS METAR and TAF weather

Enter ICAO airport designator
Station Type Date Time Source
KRKS METAR 2020/11/25 20:54 UTC NOAA

KRKS 252054Z AUTO 33011G16KT 10SM CLR 04/M11 A2989 RMK AO2 SLP140 T00391106 55013


Station Type Date Time Source
KRKS Decoded METAR 2020/11/25 20:54 UTC NOAA

ROCK SPRINGS-SWEETWATER CO, WY, United States (KRKS) 41-36N 109-03W
Nov 25, 2020 - 03:54 PM EST / 2020.11.25 2054 UTC
Wind: from the NNW (330 degrees) at 13 MPH (11 KT) gusting to 18 MPH (16 KT):0
Visibility: 10 mile(s):0
Sky conditions: clear
Temperature: 39.0 F (3.9 C)
Dew Point: 12.9 F (-10.6 C)
Relative Humidity: 33%
Pressure (altimeter): 29.89 in. Hg (1012 hPa)
Pressure tendency: 0.04 inches (1.3 hPa) lower than three hours ago
ob: KRKS 252054Z AUTO 33011G16KT 10SM CLR 04/M11 A2989 RMK AO2 SLP140 T00391106 55013
cycle: 21

Station Type Date Time Source
KRKS TAF 2020/11/25 18:24 UTC NOAA

TAF KRKS 251721Z 2518/2618 24010KT P6SM SCT250
FM260000 28010KT P6SM SCT100 BKN200

Example: see airport list